Time;durP1;ratioP1;P1;durP2;ratioP2;P2;SDS_P1;SDS_P2;PMS_P1;PMS_P2;Temp;Humidity;BMP_temperature;BMP_pressure;BME280_temperature;BME280_humidity;BME280_pressure;Samples;Min_cycle;Max_cycle;Signal;HPM_P1;HPM_P2
2023/09/15 00:01:40;;;;;;;0.10;0.10;;;12.20;99.90;;;;;;5088025;28;20439;-74
2023/09/15 00:04:06;;;;;;;0.10;0.10;;;12.10;99.90;;;;;;5088706;28;20246;-75
2023/09/15 00:06:36;;;;;;;0.10;0.10;;;12.20;99.90;;;;;;5087944;28;20938;-74
2023/09/15 00:09:06;;;;;;;0.10;0.10;;;12.00;99.90;;;;;;5085670;28;20850;-75
2023/09/15 00:11:42;;;;;;;0.10;0.10;;;12.00;99.90;;;;;;5090006;28;20507;-75
2023/09/15 00:14:12;;;;;;;0.10;0.10;;;11.80;99.90;;;;;;5089912;28;20445;-75
2023/09/15 00:16:39;;;;;;;0.10;0.10;;;11.70;99.90;;;;;;5088628;28;20453;-75
2023/09/15 00:19:06;;;;;;;0.10;0.10;;;11.90;99.90;;;;;;5086203;28;22314;-75
2023/09/15 00:21:33;;;;;;;0.03;0.03;;;11.90;99.90;;;;;;5087034;28;20447;-75
2023/09/15 00:24:00;;;;;;;0.10;0.10;;;11.70;99.90;;;;;;5089527;28;20446;-74
2023/09/15 00:26:25;;;;;;;0.10;0.10;;;11.50;99.90;;;;;;5089011;28;20542;-74
2023/09/15 00:28:51;;;;;;;0.10;0.10;;;11.60;99.90;;;;;;5070501;28;20845;-74
2023/09/15 00:31:16;;;;;;;0.10;0.10;;;11.60;99.90;;;;;;5088449;28;20196;-74
2023/09/15 00:33:42;;;;;;;0.00;0.00;;;11.40;99.90;;;;;;5089290;28;20805;-74
2023/09/15 00:36:08;;;;;;;0.10;0.10;;;11.20;99.90;;;;;;5087981;28;20208;-74
2023/09/15 00:38:34;;;;;;;0.10;0.10;;;11.20;99.90;;;;;;5087825;28;20185;-75
2023/09/15 00:41:00;;;;;;;0.10;0.10;;;11.30;99.90;;;;;;5089183;28;20871;-74
2023/09/15 00:43:25;;;;;;;0.10;0.10;;;11.40;99.90;;;;;;5097989;28;20528;-74
2023/09/15 00:45:51;;;;;;;0.10;0.10;;;11.40;99.90;;;;;;5105738;28;20224;-75
2023/09/15 00:48:18;;;;;;;0.10;0.10;;;11.40;99.90;;;;;;5095869;28;20185;-75
2023/09/15 00:50:44;;;;;;;0.10;0.10;;;11.20;99.90;;;;;;5074751;28;20197;-74
2023/09/15 00:53:16;;;;;;;0.10;0.10;;;11.00;99.90;;;;;;5085490;28;20454;-74
2023/09/15 00:55:42;;;;;;;0.10;0.10;;;10.90;99.90;;;;;;5086537;28;20439;-74
2023/09/15 00:58:11;;;;;;;0.10;0.10;;;10.90;99.90;;;;;;5090260;28;20463;-74
2023/09/15 01:00:40;;;;;;;0.07;0.07;;;10.70;99.90;;;;;;5087432;28;20470;-74
2023/09/15 01:03:07;;;;;;;0.10;0.10;;;10.70;99.90;;;;;;5083501;28;20447;-74
2023/09/15 01:05:33;;;;;;;0.10;0.10;;;10.80;99.90;;;;;;5088106;28;20486;-74
2023/09/15 01:07:59;;;;;;;0.10;0.10;;;10.90;99.90;;;;;;5091003;28;20447;-74
2023/09/15 01:10:25;;;;;;;0.10;0.10;;;11.00;99.90;;;;;;5070102;28;20185;-75
2023/09/15 01:12:53;;;;;;;0.10;0.10;;;10.80;99.90;;;;;;5087672;28;20445;-74
2023/09/15 01:15:26;;;;;;;0.10;0.10;;;10.80;99.90;;;;;;5086566;28;20182;-74
2023/09/15 01:17:57;;;;;;;0.10;0.10;;;10.70;99.90;;;;;;5101023;28;20446;-74
2023/09/15 01:20:58;;;;;;;0.10;0.10;;;10.60;99.90;;;;;;5089513;28;21175;-74
2023/09/15 01:24:01;;;;;;;0.10;0.10;;;10.70;99.90;;;;;;5084316;28;20566;-74
2023/09/15 01:26:44;;;;;;;0.10;0.10;;;10.50;99.90;;;;;;5087466;28;20454;-74
2023/09/15 01:29:39;;;;;;;0.10;0.10;;;10.50;99.90;;;;;;5086204;28;21988;-74
2023/09/15 01:32:08;;;;;;;0.10;0.10;;;10.50;99.90;;;;;;5058839;28;20962;-74
2023/09/15 01:34:37;;;;;;;0.10;0.10;;;10.50;99.90;;;;;;5081772;28;20443;-74
2023/09/15 01:37:03;;;;;;;0.10;0.10;;;10.30;99.90;;;;;;5088670;28;20458;-74
2023/09/15 01:39:30;;;;;;;0.10;0.10;;;10.30;99.90;;;;;;5067783;28;20443;-74
2023/09/15 01:42:00;;;;;;;0.10;0.10;;;10.20;99.90;;;;;;5083546;28;20471;-74
2023/09/15 01:44:26;;;;;;;0.10;0.10;;;10.30;99.90;;;;;;5072117;28;20478;-75
2023/09/15 01:46:53;;;;;;;0.10;0.10;;;10.30;99.90;;;;;;5088788;28;20451;-74
2023/09/15 01:49:20;;;;;;;0.10;0.10;;;10.40;99.90;;;;;;5085849;28;20469;-74
2023/09/15 01:51:46;;;;;;;0.10;0.10;;;10.40;99.90;;;;;;5103060;28;20490;-74
2023/09/15 01:54:13;;;;;;;0.10;0.10;;;10.40;99.90;;;;;;5096902;28;20465;-74
2023/09/15 01:56:39;;;;;;;0.10;0.10;;;10.30;99.90;;;;;;5068871;28;20561;-74
2023/09/15 01:59:04;;;;;;;0.10;0.10;;;10.40;99.90;;;;;;5088000;28;20586;-74
2023/09/15 02:01:30;;;;;;;0.10;0.10;;;10.30;99.90;;;;;;5086271;28;20192;-75
2023/09/15 02:03:55;;;;;;;0.10;0.10;;;10.30;99.90;;;;;;5087681;28;20180;-74
2023/09/15 02:06:21;;;;;;;0.10;0.10;;;10.30;99.90;;;;;;5095385;28;20217;-74
2023/09/15 02:08:47;;;;;;;0.03;0.03;;;10.20;99.90;;;;;;5071723;28;20192;-74
2023/09/15 02:11:12;;;;;;;0.10;0.10;;;10.20;99.90;;;;;;5092305;28;20189;-74
2023/09/15 02:13:40;;;;;;;0.03;0.03;;;10.10;99.90;;;;;;5086150;28;20284;-74
2023/09/15 02:16:05;;;;;;;0.10;0.10;;;10.10;99.90;;;;;;5090352;28;20634;-74
2023/09/15 02:18:31;;;;;;;0.10;0.10;;;10.20;99.90;;;;;;5073332;28;20447;-74
2023/09/15 02:20:57;;;;;;;0.10;0.10;;;10.00;99.90;;;;;;5097710;28;20189;-75
2023/09/15 02:23:23;;;;;;;0.10;0.10;;;9.90;99.90;;;;;;5079129;28;20235;-74
2023/09/15 02:25:49;;;;;;;0.10;0.10;;;9.80;99.90;;;;;;5070637;28;20660;-74
2023/09/15 02:28:15;;;;;;;0.10;0.10;;;9.90;99.90;;;;;;5090720;28;20947;-74
2023/09/15 02:30:41;;;;;;;0.10;0.10;;;10.00;99.90;;;;;;5072061;28;20536;-74
2023/09/15 02:33:06;;;;;;;0.10;0.10;;;10.20;99.90;;;;;;5091423;28;20934;-74
2023/09/15 02:35:32;;;;;;;0.10;0.10;;;10.20;99.90;;;;;;5077694;28;20181;-74
2023/09/15 02:37:57;;;;;;;0.07;0.07;;;10.30;99.90;;;;;;5089330;28;20185;-74
2023/09/15 02:40:24;;;;;;;0.10;0.10;;;10.30;99.90;;;;;;5093073;28;20318;-75
2023/09/15 02:42:50;;;;;;;0.10;0.10;;;10.20;99.90;;;;;;5089767;28;20192;-74
2023/09/15 02:45:16;;;;;;;0.10;0.10;;;10.10;99.90;;;;;;5070087;28;20479;-74
2023/09/15 02:47:41;;;;;;;0.10;0.10;;;9.90;99.90;;;;;;5091097;28;21058;-75
2023/09/15 02:50:07;;;;;;;0.00;0.00;;;9.80;99.90;;;;;;5092284;28;20446;-74
2023/09/15 02:52:33;;;;;;;0.10;0.10;;;9.80;99.90;;;;;;5091416;28;20189;-74
2023/09/15 02:54:59;;;;;;;0.10;0.10;;;10.00;99.90;;;;;;5090737;28;20443;-74
2023/09/15 02:57:25;;;;;;;0.10;0.10;;;10.00;99.90;;;;;;5090140;28;20820;-74
2023/09/15 02:59:53;;;;;;;0.10;0.10;;;10.00;99.90;;;;;;5090029;28;20200;-74
2023/09/15 03:02:23;;;;;;;0.10;0.10;;;10.00;99.90;;;;;;5086442;28;20192;-74
2023/09/15 03:04:49;;;;;;;0.10;0.10;;;10.10;99.90;;;;;;5078215;28;20485;-74
2023/09/15 03:07:15;;;;;;;0.10;0.10;;;10.00;99.90;;;;;;5073681;28;20470;-74
2023/09/15 03:09:41;;;;;;;0.10;0.10;;;9.90;99.90;;;;;;5086099;28;20427;-74
2023/09/15 03:12:07;;;;;;;0.10;0.10;;;9.80;99.90;;;;;;5090248;28;20820;-74
2023/09/15 03:14:32;;;;;;;0.10;0.10;;;9.90;99.90;;;;;;5087932;28;20189;-74
2023/09/15 03:16:58;;;;;;;0.10;0.10;;;9.80;99.90;;;;;;5087441;28;20653;-74
2023/09/15 03:19:24;;;;;;;0.10;0.10;;;9.70;99.90;;;;;;5080353;28;20184;-74
2023/09/15 03:21:50;;;;;;;0.07;0.07;;;9.70;99.90;;;;;;5086038;28;20610;-74
2023/09/15 03:24:16;;;;;;;0.10;0.10;;;9.70;99.90;;;;;;5090118;28;20193;-74
2023/09/15 03:26:41;;;;;;;0.10;0.10;;;9.60;99.90;;;;;;5078115;28;20668;-74
2023/09/15 03:29:07;;;;;;;0.10;0.10;;;9.60;99.90;;;;;;5088420;28;20185;-74
2023/09/15 03:31:32;;;;;;;0.10;0.10;;;9.70;99.90;;;;;;5087977;28;20185;-74
2023/09/15 03:33:58;;;;;;;0.20;0.20;;;9.60;99.90;;;;;;5101978;28;20217;-74
2023/09/15 03:36:28;;;;;;;0.10;0.10;;;9.60;99.90;;;;;;5072265;28;20188;-74
2023/09/15 03:38:54;;;;;;;0.10;0.10;;;9.70;99.90;;;;;;5073052;28;20684;-75
2023/09/15 03:41:22;;;;;;;0.10;0.10;;;9.60;99.90;;;;;;5089504;28;20527;-75
2023/09/15 03:43:47;;;;;;;0.10;0.10;;;9.60;99.90;;;;;;5088978;28;20216;-74
2023/09/15 03:46:13;;;;;;;0.10;0.10;;;9.50;99.90;;;;;;5089066;28;20518;-74
2023/09/15 03:48:38;;;;;;;0.10;0.10;;;9.40;99.90;;;;;;5088526;28;20181;-74
2023/09/15 03:51:04;;;;;;;0.10;0.10;;;9.50;99.90;;;;;;5084243;28;20268;-74
2023/09/15 03:53:29;;;;;;;0.10;0.10;;;9.40;99.90;;;;;;5089568;28;20661;-74
2023/09/15 03:55:55;;;;;;;0.10;0.10;;;9.60;99.90;;;;;;5084933;28;20213;-74
2023/09/15 03:58:20;;;;;;;0.10;0.10;;;9.60;99.90;;;;;;5086462;28;20295;-74
2023/09/15 04:00:46;;;;;;;0.10;0.10;;;9.60;99.90;;;;;;5083896;28;20260;-74
2023/09/15 04:03:11;;;;;;;0.20;0.20;;;9.50;99.90;;;;;;5081636;28;20268;-74
2023/09/15 04:05:38;;;;;;;0.10;0.10;;;9.50;99.90;;;;;;5085248;28;20221;-74
2023/09/15 04:08:03;;;;;;;0.20;0.20;;;9.50;99.90;;;;;;5088225;28;20773;-74
2023/09/15 04:10:29;;;;;;;0.20;0.20;;;9.60;99.90;;;;;;5086926;28;20451;-74
2023/09/15 04:12:55;;;;;;;0.20;0.20;;;9.40;99.90;;;;;;5085282;28;20660;-74
2023/09/15 04:15:20;;;;;;;0.20;0.20;;;9.40;99.90;;;;;;5090634;28;21788;-74
2023/09/15 04:17:46;;;;;;;0.20;0.20;;;9.30;99.90;;;;;;5088025;28;20188;-74
2023/09/15 04:20:12;;;;;;;0.23;0.23;;;9.30;99.90;;;;;;5087083;28;20197;-73
2023/09/15 04:22:38;;;;;;;0.20;0.20;;;9.30;99.90;;;;;;5090187;28;20221;-75
2023/09/15 04:25:05;;;;;;;0.20;0.20;;;9.20;99.90;;;;;;5094558;28;20608;-74
2023/09/15 04:27:34;;;;;;;0.20;0.20;;;9.20;99.90;;;;;;5083939;28;20442;-74
2023/09/15 04:30:01;;;;;;;0.20;0.20;;;9.20;99.90;;;;;;5084236;28;20461;-74
2023/09/15 04:32:26;;;;;;;0.20;0.20;;;9.20;99.90;;;;;;5082801;28;20446;-73
2023/09/15 04:34:53;;;;;;;0.20;0.20;;;9.20;99.90;;;;;;5086093;28;20450;-73
2023/09/15 04:37:19;;;;;;;0.20;0.20;;;9.20;99.90;;;;;;5088382;28;20205;-73
2023/09/15 04:39:45;;;;;;;0.30;0.30;;;9.20;99.90;;;;;;5090549;28;20447;-73
2023/09/15 04:42:12;;;;;;;0.20;0.20;;;9.30;99.90;;;;;;5090422;28;20458;-73
2023/09/15 04:44:37;;;;;;;0.20;0.20;;;9.20;99.90;;;;;;5086017;28;20197;-73
2023/09/15 04:47:03;;;;;;;0.20;0.20;;;9.20;99.90;;;;;;5084053;28;20512;-73
2023/09/15 04:49:29;;;;;;;0.30;0.30;;;9.10;99.90;;;;;;5086404;28;20592;-73
2023/09/15 04:51:55;;;;;;;0.20;0.20;;;9.10;99.90;;;;;;5068295;28;20494;-74
2023/09/15 04:54:20;;;;;;;0.20;0.20;;;9.10;99.90;;;;;;5099520;28;20188;-74
2023/09/15 04:56:46;;;;;;;0.20;0.20;;;9.10;99.90;;;;;;5079051;28;20196;-73
2023/09/15 04:59:18;;;;;;;0.30;0.30;;;9.10;99.90;;;;;;5087743;28;20307;-73
2023/09/15 05:01:44;;;;;;;0.20;0.20;;;9.20;99.90;;;;;;5067834;28;20185;-73
2023/09/15 05:04:10;;;;;;;0.20;0.20;;;9.20;99.90;;;;;;5084750;28;20470;-73
2023/09/15 05:06:38;;;;;;;0.20;0.20;;;9.10;99.90;;;;;;5085582;28;20494;-73
2023/09/15 05:09:10;;;;;;;0.20;0.20;;;9.10;99.90;;;;;;5087609;28;20230;-73
2023/09/15 05:11:37;;;;;;;0.20;0.20;;;9.10;99.90;;;;;;5086670;28;20480;-74
2023/09/15 05:14:03;;;;;;;0.20;0.20;;;9.10;99.90;;;;;;5071786;28;20453;-73
2023/09/15 05:16:29;;;;;;;0.20;0.20;;;9.10;99.90;;;;;;5089388;28;20450;-73
2023/09/15 05:18:55;;;;;;;0.20;0.20;;;9.10;99.90;;;;;;5095219;28;20461;-73
2023/09/15 05:21:20;;;;;;;0.10;0.10;;;9.20;99.90;;;;;;5082282;28;20447;-73
2023/09/15 05:23:46;;;;;;;0.10;0.10;;;9.20;99.90;;;;;;5081850;28;20307;-73
2023/09/15 05:26:11;;;;;;;0.10;0.10;;;9.30;99.90;;;;;;5086190;28;20621;-73
2023/09/15 05:28:37;;;;;;;0.10;0.10;;;9.30;99.90;;;;;;5079784;28;20278;-73
2023/09/15 05:31:02;;;;;;;0.10;0.10;;;9.30;99.90;;;;;;5082346;28;20626;-73
2023/09/15 05:33:28;;;;;;;0.10;0.10;;;9.30;99.90;;;;;;5105758;28;20184;-73
2023/09/15 05:35:57;;;;;;;0.10;0.10;;;9.40;99.90;;;;;;5103113;28;20223;-73
2023/09/15 05:38:23;;;;;;;0.10;0.10;;;9.30;99.90;;;;;;5094614;28;21188;-73
2023/09/15 05:40:49;;;;;;;0.10;0.10;;;9.30;99.90;;;;;;5091913;28;20434;-73
2023/09/15 05:43:19;;;;;;;0.10;0.10;;;9.30;99.90;;;;;;5087479;28;20938;-73
2023/09/15 05:45:44;;;;;;;0.20;0.20;;;9.30;99.90;;;;;;5099452;28;20239;-73
2023/09/15 05:48:12;;;;;;;0.10;0.10;;;9.30;99.90;;;;;;5069723;28;20427;-73
2023/09/15 05:50:41;;;;;;;0.17;0.17;;;9.40;99.90;;;;;;5083002;28;20636;-73
2023/09/15 05:53:06;;;;;;;0.10;0.10;;;9.40;99.90;;;;;;5078206;28;22253;-73
2023/09/15 05:55:32;;;;;;;0.10;0.10;;;9.50;99.90;;;;;;5075545;28;20433;-73
2023/09/15 05:57:58;;;;;;;0.10;0.10;;;9.60;99.90;;;;;;5080873;28;20228;-73
2023/09/15 06:00:23;;;;;;;0.10;0.10;;;9.70;99.90;;;;;;5092883;28;20484;-73
2023/09/15 06:02:49;;;;;;;0.10;0.10;;;9.90;99.90;;;;;;5091710;28;20234;-73
2023/09/15 06:05:17;;;;;;;0.10;0.10;;;10.00;99.90;;;;;;5091107;28;20224;-73
2023/09/15 06:07:42;;;;;;;0.10;0.10;;;10.00;99.90;;;;;;5072115;28;20193;-73
2023/09/15 06:10:09;;;;;;;0.10;0.10;;;10.10;99.90;;;;;;5089763;28;20465;-73
2023/09/15 06:12:34;;;;;;;0.10;0.10;;;10.20;99.90;;;;;;5089702;28;20599;-73
2023/09/15 06:15:00;;;;;;;0.10;0.10;;;10.30;99.90;;;;;;5088240;28;20434;-73
2023/09/15 06:17:27;;;;;;;0.10;0.10;;;10.40;99.90;;;;;;5092715;28;20189;-73
2023/09/15 06:19:53;;;;;;;0.10;0.10;;;10.40;99.90;;;;;;5086673;28;20231;-73
2023/09/15 06:22:19;;;;;;;0.10;0.10;;;10.70;99.90;;;;;;5081248;28;20834;-72
2023/09/15 06:24:44;;;;;;;0.10;0.10;;;10.80;99.90;;;;;;5088262;28;20475;-73
2023/09/15 06:27:10;;;;;;;0.10;0.10;;;11.00;99.90;;;;;;5073186;28;20253;-73
2023/09/15 06:29:36;;;;;;;0.10;0.10;;;11.30;99.90;;;;;;5089328;28;20667;-73
2023/09/15 06:32:01;;;;;;;0.10;0.10;;;11.80;99.90;;;;;;5086739;28;20200;-73
2023/09/15 06:34:27;;;;;;;0.10;0.10;;;12.30;99.90;;;;;;5093661;28;20452;-73
2023/09/15 06:36:53;;;;;;;0.00;0.00;;;12.70;99.90;;;;;;5092212;28;20671;-74
2023/09/15 06:39:23;;;;;;;0.07;0.07;;;12.80;99.90;;;;;;5089970;28;20220;-74
2023/09/15 06:41:49;;;;;;;0.00;0.00;;;12.90;99.90;;;;;;5081958;28;20737;-73
2023/09/15 06:44:14;;;;;;;0.00;0.00;;;13.00;99.90;;;;;;5091011;28;20454;-73
2023/09/15 06:46:40;;;;;;;0.00;0.00;;;13.00;99.90;;;;;;5088447;28;20454;-74
2023/09/15 06:49:05;;;;;;;0.10;0.10;;;13.00;99.90;;;;;;5092765;28;20204;-74
2023/09/15 06:51:32;;;;;;;0.00;0.00;;;13.10;99.90;;;;;;5085382;28;20188;-74
2023/09/15 06:53:59;;;;;;;0.00;0.00;;;13.20;99.90;;;;;;5084005;28;20560;-74
2023/09/15 06:56:25;;;;;;;0.00;0.00;;;13.30;99.90;;;;;;5083209;28;20967;-73
2023/09/15 06:58:50;;;;;;;0.03;0.03;;;13.30;99.90;;;;;;5069033;28;20479;-73
2023/09/15 07:01:16;;;;;;;0.07;0.07;;;13.50;99.90;;;;;;5086033;28;20458;-73
2023/09/15 07:03:42;;;;;;;0.00;0.00;;;13.60;99.90;;;;;;5071465;28;20189;-73
2023/09/15 07:06:07;;;;;;;0.00;0.00;;;13.60;99.90;;;;;;5067555;28;20900;-73
2023/09/15 07:08:33;;;;;;;0.00;0.00;;;13.70;99.90;;;;;;5089012;28;20185;-74
2023/09/15 07:10:58;;;;;;;0.00;0.00;;;13.80;99.90;;;;;;5097034;28;20271;-75
2023/09/15 07:13:24;;;;;;;0.00;0.00;;;14.00;99.90;;;;;;5088458;28;20185;-74
2023/09/15 07:15:49;;;;;;;0.00;0.00;;;14.10;99.90;;;;;;5070271;28;20188;-74
2023/09/15 07:18:15;;;;;;;0.00;0.00;;;14.10;99.90;;;;;;5086709;28;20201;-74
2023/09/15 07:20:40;;;;;;;0.00;0.00;;;14.20;99.90;;;;;;5091706;28;20185;-74
2023/09/15 07:23:06;;;;;;;0.00;0.00;;;14.40;99.90;;;;;;5071165;28;20221;-74
2023/09/15 07:25:32;;;;;;;0.00;0.00;;;14.50;99.90;;;;;;5091521;28;20204;-74
2023/09/15 07:27:57;;;;;;;0.00;0.00;;;14.60;99.90;;;;;;5093751;28;20195;-76
2023/09/15 07:30:23;;;;;;;0.00;0.00;;;14.80;99.90;;;;;;5093028;28;20196;-76
2023/09/15 07:32:48;;;;;;;0.00;0.00;;;14.90;99.90;;;;;;5089340;28;20282;-76
2023/09/15 07:35:14;;;;;;;0.00;0.00;;;15.00;99.90;;;;;;5080552;28;20210;-75
2023/09/15 07:37:40;;;;;;;0.00;0.00;;;15.00;99.90;;;;;;5090042;28;20185;-76
2023/09/15 07:40:09;;;;;;;0.00;0.00;;;15.10;99.90;;;;;;5081472;28;20194;-76
2023/09/15 07:42:36;;;;;;;0.00;0.00;;;15.00;99.90;;;;;;5084630;28;20514;-75
2023/09/15 07:45:02;;;;;;;0.00;0.00;;;15.10;99.90;;;;;;5083698;28;20474;-76
2023/09/15 07:47:28;;;;;;;0.00;0.00;;;15.20;99.90;;;;;;5083661;28;20450;-74
2023/09/15 07:49:54;;;;;;;0.00;0.00;;;15.20;99.90;;;;;;5064931;28;20431;-75
2023/09/15 07:52:19;;;;;;;0.00;0.00;;;15.30;99.90;;;;;;5084614;28;22156;-76
2023/09/15 07:54:45;;;;;;;0.00;0.00;;;15.40;99.90;;;;;;5087446;28;20197;-76
2023/09/15 07:57:11;;;;;;;0.00;0.00;;;15.70;99.90;;;;;;5086042;28;20209;-76
2023/09/15 07:59:37;;;;;;;0.00;0.00;;;15.90;99.90;;;;;;5084257;28;20465;-76
2023/09/15 08:02:06;;;;;;;0.00;0.00;;;16.00;99.90;;;;;;5084311;28;20235;-75
2023/09/15 08:04:31;;;;;;;0.00;0.00;;;16.00;99.90;;;;;;5071191;28;20526;-76
2023/09/15 08:06:58;;;;;;;0.00;0.00;;;16.10;99.90;;;;;;5070077;28;20559;-76
2023/09/15 08:09:23;;;;;;;0.00;0.00;;;16.30;99.90;;;;;;5089954;28;20522;-76
2023/09/15 08:11:49;;;;;;;0.00;0.00;;;16.50;99.90;;;;;;5089613;28;20575;-77
2023/09/15 08:14:14;;;;;;;0.00;0.00;;;16.40;99.90;;;;;;5069586;28;20866;-76
2023/09/15 08:16:40;;;;;;;0.00;0.00;;;16.50;99.90;;;;;;5087288;28;20205;-76
2023/09/15 08:19:06;;;;;;;0.00;0.00;;;16.70;99.90;;;;;;5089995;28;20184;-76
2023/09/15 08:21:32;;;;;;;0.00;0.00;;;16.80;99.90;;;;;;5086951;28;20181;-76
2023/09/15 08:23:57;;;;;;;0.00;0.00;;;17.00;99.90;;;;;;5088842;28;20473;-76
2023/09/15 08:26:25;;;;;;;0.00;0.00;;;17.30;99.90;;;;;;5085895;28;20248;-76
2023/09/15 08:28:50;;;;;;;0.00;0.00;;;17.50;99.90;;;;;;5086279;28;20560;-76
2023/09/15 08:31:16;;;;;;;0.00;0.00;;;17.40;99.90;;;;;;5083219;28;21007;-76
2023/09/15 08:33:42;;;;;;;0.00;0.00;;;17.50;99.90;;;;;;5089000;28;20174;-77
2023/09/15 08:36:07;;;;;;;0.00;0.00;;;17.60;99.90;;;;;;5084806;28;20188;-76
2023/09/15 08:38:33;;;;;;;0.00;0.00;;;17.70;99.90;;;;;;5084468;28;20189;-76
2023/09/15 08:41:08;;;;;;;0.00;0.00;;;17.80;99.90;;;;;;5085962;28;20181;-76
2023/09/15 08:43:34;;;;;;;0.00;0.00;;;17.80;99.90;;;;;;5092884;28;20437;-76
2023/09/15 08:46:03;;;;;;;0.00;0.00;;;17.60;99.90;;;;;;5091326;28;20611;-76
2023/09/15 08:48:35;;;;;;;0.00;0.00;;;17.60;99.90;;;;;;5084403;28;20555;-77
2023/09/15 08:51:03;;;;;;;0.00;0.00;;;17.50;99.90;;;;;;5085946;28;20447;-77
2023/09/15 08:53:29;;;;;;;0.00;0.00;;;18.00;99.90;;;;;;5081864;28;20836;-76
2023/09/15 08:55:55;;;;;;;0.00;0.00;;;18.20;99.90;;;;;;5083236;28;20481;-78
2023/09/15 08:58:21;;;;;;;0.00;0.00;;;18.30;99.90;;;;;;5084926;28;20248;-76
2023/09/15 09:00:46;;;;;;;0.00;0.00;;;18.40;99.90;;;;;;5085721;28;20442;-77
2023/09/15 09:03:15;;;;;;;0.00;0.00;;;18.40;99.90;;;;;;5089746;28;21284;-77
2023/09/15 09:05:46;;;;;;;0.00;0.00;;;18.40;99.90;;;;;;5092392;28;20213;-76
2023/09/15 09:08:13;;;;;;;0.00;0.00;;;18.60;99.90;;;;;;5085922;28;20473;-76
2023/09/15 09:10:40;;;;;;;0.00;0.00;;;18.50;99.90;;;;;;5088853;28;20442;-74
2023/09/15 09:13:05;;;;;;;0.00;0.00;;;18.60;99.90;;;;;;5079793;28;20443;-77
2023/09/15 09:15:32;;;;;;;0.00;0.00;;;18.80;99.90;;;;;;5082270;28;20448;-76
2023/09/15 09:17:58;;;;;;;0.00;0.00;;;18.80;99.90;;;;;;5087425;28;20185;-76
2023/09/15 09:20:28;;;;;;;0.00;0.00;;;19.00;99.90;;;;;;5066791;28;20451;-76
2023/09/15 09:22:54;;;;;;;0.00;0.00;;;19.10;99.90;;;;;;5083566;28;20196;-75
2023/09/15 09:25:33;;;;;;;0.00;0.00;;;19.00;99.90;;;;;;5067358;28;20488;-77
2023/09/15 09:27:59;;;;;;;0.00;0.00;;;19.10;99.90;;;;;;5084212;28;20445;-76
2023/09/15 09:30:29;;;;;;;0.00;0.00;;;19.40;99.90;;;;;;5086328;28;21439;-76
2023/09/15 09:32:58;;;;;;;0.00;0.00;;;19.30;99.90;;;;;;5074456;28;20443;-77
2023/09/15 09:35:24;;;;;;;0.00;0.00;;;20.10;99.90;;;;;;5086639;28;20802;-77
2023/09/15 09:37:52;;;;;;;0.00;0.00;;;20.20;99.90;;;;;;5067326;28;20493;-76
2023/09/15 09:40:18;;;;;;;0.00;0.00;;;20.40;99.90;;;;;;5085478;28;20469;-76
2023/09/15 09:42:45;;;;;;;0.00;0.00;;;20.80;99.90;;;;;;5087912;28;20454;-77
2023/09/15 09:45:11;;;;;;;0.00;0.00;;;20.70;99.90;;;;;;5095238;28;20208;-78
2023/09/15 09:47:37;;;;;;;0.00;0.00;;;20.90;99.90;;;;;;5090676;28;20442;-77
2023/09/15 09:50:06;;;;;;;0.00;0.00;;;20.70;99.90;;;;;;5102209;28;20437;-78
2023/09/15 09:52:33;;;;;;;0.00;0.00;;;20.70;99.90;;;;;;5066848;28;20185;-78
2023/09/15 09:55:06;;;;;;;0.00;0.00;;;21.10;99.90;;;;;;5071572;28;20424;-78
2023/09/15 09:57:33;;;;;;;0.00;0.00;;;21.30;99.90;;;;;;5068288;28;20559;-77
2023/09/15 09:59:58;;;;;;;0.00;0.00;;;21.60;99.90;;;;;;5098801;28;20453;-77
2023/09/15 10:02:25;;;;;;;0.00;0.00;;;21.80;99.90;;;;;;5086065;28;20443;-76
2023/09/15 10:04:50;;;;;;;0.00;0.00;;;21.60;99.90;;;;;;5088163;28;20351;-76
2023/09/15 10:07:16;;;;;;;0.00;0.00;;;21.20;99.90;;;;;;5080777;28;20813;-76
2023/09/15 10:09:44;;;;;;;0.00;0.00;;;20.90;99.90;;;;;;5088127;28;20189;-77
2023/09/15 10:12:11;;;;;;;0.00;0.00;;;21.30;99.90;;;;;;5069908;28;20627;-77
2023/09/15 10:14:37;;;;;;;0.00;0.00;;;22.00;99.90;;;;;;5085137;28;20437;-77
2023/09/15 10:17:04;;;;;;;0.00;0.00;;;21.30;99.90;;;;;;5071492;28;20545;-77
2023/09/15 10:19:30;;;;;;;0.00;0.00;;;21.60;99.90;;;;;;5085889;28;20439;-77
2023/09/15 10:21:57;;;;;;;0.00;0.00;;;22.10;99.90;;;;;;5084580;28;20461;-78
2023/09/15 10:24:23;;;;;;;0.00;0.00;;;21.90;99.90;;;;;;5066925;28;20221;-75
2023/09/15 10:26:48;;;;;;;0.00;0.00;;;22.00;99.90;;;;;;5091570;28;20537;-75
2023/09/15 10:29:15;;;;;;;0.00;0.00;;;22.20;99.90;;;;;;5074150;28;20547;-75
2023/09/15 10:31:42;;;;;;;0.00;0.00;;;22.40;99.90;;;;;;5097484;28;20188;-77
2023/09/15 10:34:07;;;;;;;0.00;0.00;;;21.40;99.90;;;;;;5094769;28;20465;-78
2023/09/15 10:36:33;;;;;;;0.00;0.00;;;21.90;99.90;;;;;;5096617;28;20454;-78
2023/09/15 10:39:17;;;;;;;0.00;0.00;;;22.00;99.90;;;;;;5064546;28;20610;-76
2023/09/15 10:41:43;;;;;;;0.00;0.00;;;22.90;99.90;;;;;;5082985;28;20446;-75
2023/09/15 10:44:13;;;;;;;0.00;0.00;;;23.50;99.90;;;;;;5074144;28;20450;-76
2023/09/15 10:46:41;;;;;;;0.00;0.00;;;24.20;99.90;;;;;;5092165;28;20595;-75
2023/09/15 10:49:20;;;;;;;0.00;0.00;;;24.10;99.90;;;;;;5088615;28;21502;-76
2023/09/15 10:52:00;;;;;;;0.00;0.00;;;24.40;99.90;;;;;;5094346;28;21265;-76
2023/09/15 10:54:34;;;;;;;0.00;0.00;;;24.30;99.90;;;;;;5073292;28;20461;-74
2023/09/15 10:57:01;;;;;;;0.00;0.00;;;22.80;99.90;;;;;;5104509;28;20441;-77
2023/09/15 10:59:27;;;;;;;0.00;0.00;;;21.90;99.90;;;;;;5099840;28;20458;-77
2023/09/15 11:01:54;;;;;;;0.00;0.00;;;22.00;99.90;;;;;;5069013;28;20485;-75
2023/09/15 11:04:25;;;;;;;0.00;0.00;;;23.10;99.90;;;;;;5108078;28;20438;-76
2023/09/15 11:06:52;;;;;;;0.00;0.00;;;23.40;99.90;;;;;;5072955;28;20873;-75
2023/09/15 11:09:18;;;;;;;0.00;0.00;;;23.60;99.90;;;;;;5090723;28;20447;-75
2023/09/15 11:11:48;;;;;;;0.00;0.00;;;22.70;99.90;;;;;;5084647;28;20444;-76
2023/09/15 11:14:16;;;;;;;0.00;0.00;;;22.00;99.90;;;;;;5089670;28;20447;-75
2023/09/15 11:16:48;;;;;;;0.00;0.00;;;21.80;99.90;;;;;;5071100;28;20453;-75
2023/09/15 11:19:16;;;;;;;0.00;0.00;;;23.20;99.90;;;;;;5091483;28;20446;-75
2023/09/15 11:21:42;;;;;;;0.00;0.00;;;23.90;99.90;;;;;;5077593;28;20570;-75
2023/09/15 11:24:10;;;;;;;0.00;0.00;;;24.30;99.90;;;;;;5093723;28;20476;-75
2023/09/15 11:26:50;;;;;;;0.00;0.00;;;23.80;99.90;;;;;;5072951;28;20224;-75
2023/09/15 11:29:26;;;;;;;0.00;0.00;;;24.10;99.90;;;;;;5092193;28;20410;-75
2023/09/15 11:31:53;;;;;;;0.00;0.00;;;24.80;99.90;;;;;;5069570;28;20447;-75
2023/09/15 11:34:19;;;;;;;0.00;0.00;;;25.10;99.90;;;;;;5098461;28;20442;-75
2023/09/15 11:36:45;;;;;;;0.00;0.00;;;24.90;99.90;;;;;;5077328;28;20805;-75
2023/09/15 11:39:12;;;;;;;0.00;0.00;;;24.80;99.90;;;;;;5072652;28;20485;-74
2023/09/15 11:41:39;;;;;;;0.00;0.00;;;25.00;99.90;;;;;;5090271;28;20181;-74
2023/09/15 11:44:08;;;;;;;0.00;0.00;;;25.00;99.90;;;;;;5106690;28;20950;-75
2023/09/15 11:46:39;;;;;;;0.00;0.00;;;24.90;99.90;;;;;;5087091;28;21035;-75
2023/09/15 11:49:05;;;;;;;0.00;0.00;;;25.00;99.90;;;;;;5073549;28;20416;-75
2023/09/15 11:51:31;;;;;;;0.00;0.00;;;24.80;99.90;;;;;;5080830;28;20542;-75
2023/09/15 11:54:00;;;;;;;0.00;0.00;;;24.20;99.90;;;;;;5064543;28;20526;-75
2023/09/15 11:56:28;;;;;;;0.00;0.00;;;24.70;99.90;;;;;;5089267;28;20189;-75
2023/09/15 11:58:56;;;;;;;0.00;0.00;;;25.60;99.90;;;;;;5087713;28;20487;-75
2023/09/15 12:01:22;;;;;;;0.00;0.00;;;25.20;99.90;;;;;;5070649;28;20647;-75
2023/09/15 12:03:48;;;;;;;0.00;0.00;;;24.30;99.90;;;;;;5089838;28;20479;-75
2023/09/15 12:06:17;;;;;;;0.00;0.00;;;25.20;99.90;;;;;;5082950;28;20224;-75
2023/09/15 12:08:48;;;;;;;0.00;0.00;;;25.20;99.90;;;;;;5072211;28;20450;-75
2023/09/15 12:11:14;;;;;;;0.00;0.00;;;24.70;99.90;;;;;;5068964;28;20787;-75
2023/09/15 12:13:40;;;;;;;0.00;0.00;;;25.30;99.90;;;;;;5088863;28;20431;-75
2023/09/15 12:16:15;;;;;;;0.00;0.00;;;26.20;99.90;;;;;;5088371;28;20500;-75
2023/09/15 12:18:44;;;;;;;0.00;0.00;;;26.50;99.90;;;;;;5090069;28;20984;-75
2023/09/15 12:21:11;;;;;;;0.00;0.00;;;26.10;99.90;;;;;;5072269;28;20443;-75
2023/09/15 12:23:37;;;;;;;0.00;0.00;;;25.60;99.90;;;;;;5070823;28;20473;-75
2023/09/15 12:26:03;;;;;;;0.00;0.00;;;25.60;99.90;;;;;;5087042;28;20514;-75
2023/09/15 12:28:29;;;;;;;0.00;0.00;;;25.50;99.90;;;;;;5073742;28;20541;-75
2023/09/15 12:30:58;;;;;;;0.00;0.00;;;25.60;99.90;;;;;;5077889;28;20451;-75
2023/09/15 12:33:25;;;;;;;0.00;0.00;;;26.00;99.90;;;;;;5088249;28;20478;-76
2023/09/15 12:35:51;;;;;;;0.00;0.00;;;26.80;99.90;;;;;;5088211;28;20452;-74
2023/09/15 12:38:20;;;;;;;0.00;0.00;;;27.70;99.90;;;;;;5087673;28;20442;-75
2023/09/15 12:40:50;;;;;;;0.00;0.00;;;26.80;99.90;;;;;;5090318;28;20193;-76
2023/09/15 12:43:15;;;;;;;0.00;0.00;;;25.60;99.90;;;;;;5088883;28;20450;-75
2023/09/15 12:45:41;;;;;;;0.00;0.00;;;25.00;99.90;;;;;;5088477;28;20495;-75
2023/09/15 12:48:09;;;;;;;0.00;0.00;;;25.50;99.90;;;;;;5104717;28;20609;-75
2023/09/15 12:50:34;;;;;;;0.00;0.00;;;24.30;99.90;;;;;;5085207;28;20246;-75